Hoffman Estates, Illinois
Current Conditions -  °F | °C
As of 8:52 AM on Saturday 20 Dec 2014 (Local Time) from KDPA Reporting Station
Haze Haze  
Wind Chill: 29°   Ceiling: 6500
Heat Index: 29°   Visibility: 6mi
Dew Point: 23°   Wind: 0mph
Humidity: 78%   Direction: NA
Pressure: 30.27"   Gusts: NA
Location:  42.06°N, 88.12°W
Report Text: KDPA 201452Z 00000KT 6SM HZ FEW048 OVC065 M02/M05 A3027 RMK AO2 SLP259 T10171050 50002
Loading
Personal Weather Stations






























Interactive Weather Map New forecast layout! Learn more

10-Day Weather Forecast

Advertisements
Track Severe Weather on mobile